Time;durP1;ratioP1;P1;durP2;ratioP2;P2;SDS_P1;SDS_P2;PMS_P1;PMS_P2;Temp;Humidity;BMP_temperature;BMP_pressure;BME280_temperature;BME280_humidity;BME280_pressure;Samples;Min_cycle;Max_cycle;Signal;HPM_P1;HPM_P2
2024/01/27 00:00:17;;;;;;;10.50;3.60;;;16.10;58.60;;;;;;5030653;28;20522;-74
2024/01/27 00:02:45;;;;;;;10.17;3.50;;;16.10;58.50;;;;;;5022862;28;20463;-76
2024/01/27 00:05:13;;;;;;;9.37;3.80;;;16.10;58.60;;;;;;5030875;28;20478;-76
2024/01/27 00:07:41;;;;;;;6.63;2.77;;;16.10;58.60;;;;;;5028683;28;20546;-75
2024/01/27 00:10:09;;;;;;;9.57;3.40;;;16.10;58.60;;;;;;5029368;28;20486;-76
2024/01/27 00:12:37;;;;;;;11.93;3.20;;;16.10;58.50;;;;;;5029444;28;20533;-75
2024/01/27 00:15:08;;;;;;;8.47;3.07;;;16.00;58.60;;;;;;5030486;28;20543;-76
2024/01/27 00:17:36;;;;;;;13.53;3.60;;;16.00;59.00;;;;;;5030477;28;20447;-77
2024/01/27 00:20:05;;;;;;;6.70;3.00;;;16.00;58.60;;;;;;5030694;28;20448;-75
2024/01/27 00:22:33;;;;;;;7.20;3.00;;;16.00;58.60;;;;;;5030314;28;20475;-76
2024/01/27 00:25:01;;;;;;;11.40;3.50;;;16.00;58.50;;;;;;5027763;28;20549;-75
2024/01/27 00:27:29;;;;;;;7.37;2.57;;;16.00;58.30;;;;;;5030627;28;20532;-76
2024/01/27 00:29:57;;;;;;;5.90;2.90;;;15.90;58.40;;;;;;5030457;28;20439;-76
2024/01/27 00:32:26;;;;;;;10.17;3.07;;;16.00;58.40;;;;;;5031187;28;20562;-76
2024/01/27 00:34:54;;;;;;;10.83;2.90;;;15.90;58.10;;;;;;5030689;28;20443;-76
2024/01/27 00:37:22;;;;;;;8.00;2.83;;;15.90;58.30;;;;;;5031107;28;20439;-76
2024/01/27 00:39:50;;;;;;;7.10;3.00;;;15.90;58.10;;;;;;5031085;28;20499;-75
2024/01/27 00:42:18;;;;;;;13.07;3.30;;;15.90;58.30;;;;;;5030582;28;20550;-75
2024/01/27 00:44:47;;;;;;;7.10;2.83;;;15.90;58.20;;;;;;5030124;28;20467;-76
2024/01/27 00:47:14;;;;;;;8.90;3.50;;;15.90;58.20;;;;;;5030744;28;20435;-75
2024/01/27 00:49:44;;;;;;;9.53;3.27;;;15.90;58.10;;;;;;5030505;28;20542;-76
2024/01/27 00:52:12;;;;;;;9.60;3.20;;;15.90;58.10;;;;;;5025783;28;20475;-77
2024/01/27 00:54:40;;;;;;;8.30;3.50;;;15.80;58.90;;;;;;5029977;28;20530;-75
2024/01/27 00:57:08;;;;;;;10.33;3.00;;;15.80;58.20;;;;;;5030647;28;20505;-76
2024/01/27 00:59:36;;;;;;;6.27;2.83;;;15.80;58.10;;;;;;5030309;28;20478;-76
2024/01/27 01:02:04;;;;;;;10.93;2.90;;;15.80;58.10;;;;;;5030395;28;20547;-75
2024/01/27 01:04:32;;;;;;;9.67;2.93;;;15.80;58.00;;;;;;5029703;28;20889;-76
2024/01/27 01:07:02;;;;;;;11.10;3.33;;;15.80;58.20;;;;;;5030419;28;20530;-74
2024/01/27 01:09:30;;;;;;;7.23;3.20;;;15.80;58.10;;;;;;5030019;28;20467;-76
2024/01/27 01:11:57;;;;;;;7.60;3.03;;;15.80;58.20;;;;;;5030212;28;20431;-76
2024/01/27 01:14:25;;;;;;;6.87;3.00;;;15.80;57.90;;;;;;5030631;28;20506;-74
2024/01/27 01:16:53;;;;;;;9.17;3.30;;;15.70;57.90;;;;;;5029938;28;20444;-74
2024/01/27 01:19:21;;;;;;;11.97;3.10;;;15.70;57.90;;;;;;5030131;28;20482;-74
2024/01/27 01:21:49;;;;;;;7.77;2.90;;;15.70;58.00;;;;;;5029903;28;20443;-74
2024/01/27 01:24:18;;;;;;;7.27;3.10;;;15.70;57.80;;;;;;5029266;28;20474;-74
2024/01/27 01:26:46;;;;;;;6.90;3.10;;;15.70;57.80;;;;;;5029237;28;20479;-74
2024/01/27 01:29:14;;;;;;;7.67;3.20;;;15.70;57.70;;;;;;5029093;28;20447;-74
2024/01/27 01:31:42;;;;;;;8.63;3.10;;;15.70;57.60;;;;;;5029609;28;20501;-74
2024/01/27 01:34:11;;;;;;;4.13;3.00;;;15.70;57.80;;;;;;5029401;28;20447;-74
2024/01/27 01:36:38;;;;;;;10.60;3.60;;;15.60;57.90;;;;;;5029670;28;20450;-74
2024/01/27 01:39:07;;;;;;;7.73;3.10;;;15.60;57.90;;;;;;5029484;28;20439;-74
2024/01/27 01:41:36;;;;;;;8.73;3.33;;;15.60;57.80;;;;;;5028184;28;20440;-74
2024/01/27 01:44:04;;;;;;;6.77;2.50;;;15.60;58.00;;;;;;5028326;28;20550;-74
2024/01/27 01:46:32;;;;;;;7.70;2.97;;;15.60;57.80;;;;;;5029294;28;20570;-74
2024/01/27 01:49:00;;;;;;;9.63;3.37;;;15.60;57.80;;;;;;5029281;28;20435;-74
2024/01/27 01:51:28;;;;;;;10.33;2.90;;;15.60;57.60;;;;;;5025044;28;20483;-74
2024/01/27 01:53:58;;;;;;;5.07;2.27;;;15.60;57.90;;;;;;5029732;28;20494;-74
2024/01/27 01:56:27;;;;;;;7.80;3.17;;;15.60;57.90;;;;;;5029694;28;20478;-75
2024/01/27 01:58:57;;;;;;;10.50;3.20;;;15.60;57.80;;;;;;5029563;28;20526;-74
2024/01/27 02:01:25;;;;;;;9.07;3.20;;;15.60;57.70;;;;;;5029994;28;20463;-74
2024/01/27 02:03:54;;;;;;;10.60;3.30;;;15.50;57.60;;;;;;5028714;28;20463;-74
2024/01/27 02:06:22;;;;;;;7.40;3.00;;;15.50;57.70;;;;;;5028676;28;21073;-74
2024/01/27 02:08:50;;;;;;;5.90;2.60;;;15.50;57.80;;;;;;5028953;28;20509;-74
2024/01/27 02:11:18;;;;;;;10.13;3.00;;;15.50;57.70;;;;;;5028868;28;20452;-75
2024/01/27 02:13:47;;;;;;;9.17;3.30;;;15.50;57.60;;;;;;5028600;28;20475;-74
2024/01/27 02:16:17;;;;;;;7.73;2.83;;;15.50;57.50;;;;;;5028663;28;20534;-74
2024/01/27 02:18:45;;;;;;;11.27;3.43;;;15.50;57.50;;;;;;5029147;28;20451;-74
2024/01/27 02:21:14;;;;;;;12.33;3.17;;;15.50;57.30;;;;;;5028835;28;20440;-74
2024/01/27 02:23:44;;;;;;;9.07;2.60;;;15.40;57.40;;;;;;5028233;28;20548;-74
2024/01/27 02:26:13;;;;;;;5.93;2.50;;;15.40;57.50;;;;;;5028523;28;20474;-74
2024/01/27 02:28:42;;;;;;;6.57;2.83;;;15.40;57.70;;;;;;5029347;28;20459;-73
2024/01/27 02:31:10;;;;;;;9.37;2.90;;;15.40;57.40;;;;;;5029297;28;20505;-74
2024/01/27 02:33:38;;;;;;;7.60;3.47;;;15.40;57.50;;;;;;5028244;28;20464;-74
2024/01/27 02:36:07;;;;;;;7.03;3.00;;;15.40;57.60;;;;;;5028618;28;20452;-74
2024/01/27 02:38:34;;;;;;;14.03;3.10;;;15.40;57.60;;;;;;5028903;28;20448;-73
2024/01/27 02:41:02;;;;;;;7.93;3.27;;;15.40;57.30;;;;;;5028996;28;20522;-74
2024/01/27 02:43:32;;;;;;;6.13;2.80;;;15.40;57.40;;;;;;5028909;28;20475;-74
2024/01/27 02:45:59;;;;;;;7.03;3.13;;;15.40;57.60;;;;;;5029098;28;20471;-74
2024/01/27 02:48:28;;;;;;;11.00;2.53;;;15.40;57.40;;;;;;5029507;28;20443;-74
2024/01/27 02:50:56;;;;;;;9.60;3.20;;;15.30;57.50;;;;;;5029289;28;20444;-74
2024/01/27 02:53:24;;;;;;;6.10;2.53;;;15.40;57.30;;;;;;5029876;28;20478;-74
2024/01/27 02:55:52;;;;;;;8.00;2.57;;;15.30;57.50;;;;;;5032919;28;20439;-74
2024/01/27 02:58:20;;;;;;;6.03;2.70;;;15.30;57.40;;;;;;5033093;28;20538;-74
2024/01/27 03:00:50;;;;;;;5.10;2.70;;;15.30;57.60;;;;;;5032972;28;20526;-74
2024/01/27 03:07:05;;;;;;;7.00;2.60;;;15.30;57.50;;;;;;5024215;28;20463;-74
2024/01/27 03:09:33;;;;;;;5.43;2.90;;;15.30;57.60;;;;;;5028003;28;20459;-74
2024/01/27 03:12:01;;;;;;;7.60;3.00;;;15.30;57.60;;;;;;5046172;28;20439;-74
2024/01/27 03:14:30;;;;;;;8.70;2.57;;;15.30;57.40;;;;;;5032148;28;20530;-74
2024/01/27 03:16:59;;;;;;;6.30;2.80;;;15.30;57.40;;;;;;5032482;28;20539;-74
2024/01/27 03:19:27;;;;;;;8.73;2.70;;;15.30;57.50;;;;;;5032811;28;20470;-75
2024/01/27 03:21:56;;;;;;;7.60;3.33;;;15.20;57.20;;;;;;5027519;28;20478;-74
2024/01/27 03:24:24;;;;;;;7.50;2.90;;;15.30;57.20;;;;;;5031862;28;20475;-73
2024/01/27 03:26:52;;;;;;;8.77;3.30;;;15.20;57.50;;;;;;5032025;28;20471;-74
2024/01/27 03:29:20;;;;;;;9.47;3.07;;;15.20;57.50;;;;;;5032586;28;20439;-74
2024/01/27 03:31:49;;;;;;;8.80;2.70;;;15.20;57.20;;;;;;5032152;28;20440;-74
2024/01/27 03:34:19;;;;;;;7.20;2.73;;;15.20;57.50;;;;;;5031615;28;20454;-74
2024/01/27 03:36:49;;;;;;;8.93;2.67;;;15.20;57.40;;;;;;5031657;28;20873;-74
2024/01/27 03:39:17;;;;;;;5.40;2.60;;;15.20;57.30;;;;;;5031909;28;20498;-74
2024/01/27 03:41:45;;;;;;;7.27;2.93;;;15.20;57.50;;;;;;5031459;28;20980;-74
2024/01/27 03:44:13;;;;;;;5.37;2.70;;;15.20;57.40;;;;;;5030979;28;20539;-74
2024/01/27 03:46:41;;;;;;;6.40;2.27;;;15.10;57.50;;;;;;5030950;28;20521;-74
2024/01/27 03:49:09;;;;;;;7.30;3.10;;;15.20;57.30;;;;;;5031385;28;20521;-74
2024/01/27 03:51:38;;;;;;;9.73;3.37;;;15.10;57.20;;;;;;5031294;28;20482;-74
2024/01/27 03:54:07;;;;;;;7.23;3.03;;;15.10;57.30;;;;;;5031033;28;20463;-74
2024/01/27 03:56:35;;;;;;;11.40;4.10;;;15.10;57.20;;;;;;5031353;28;20516;-74
2024/01/27 03:59:05;;;;;;;8.03;4.27;;;15.10;57.00;;;;;;5031447;28;20526;-74
2024/01/27 04:01:33;;;;;;;9.47;4.30;;;15.10;57.20;;;;;;5025339;28;20482;-74
2024/01/27 04:04:02;;;;;;;8.03;4.50;;;15.10;57.10;;;;;;5023521;28;20546;-74
2024/01/27 04:06:36;;;;;;;11.43;4.70;;;15.00;57.00;;;;;;5023900;28;20467;-74
2024/01/27 04:09:06;;;;;;;15.80;5.97;;;15.10;57.20;;;;;;5017173;28;20461;-74
2024/01/27 04:11:34;;;;;;;11.83;5.83;;;15.00;57.30;;;;;;5028424;28;20523;-74
2024/01/27 04:14:02;;;;;;;11.40;4.97;;;15.00;57.00;;;;;;5030549;28;20563;-74
2024/01/27 04:16:30;;;;;;;11.40;6.30;;;15.00;57.50;;;;;;5022951;28;20565;-74
2024/01/27 04:18:59;;;;;;;16.20;6.63;;;15.00;57.40;;;;;;5027610;28;20471;-74
2024/01/27 04:21:27;;;;;;;15.70;6.80;;;15.00;57.10;;;;;;5030930;28;20458;-73
2024/01/27 04:23:56;;;;;;;12.27;6.17;;;15.00;57.20;;;;;;5030926;28;20467;-74
2024/01/27 04:26:25;;;;;;;15.83;7.13;;;15.00;57.10;;;;;;5030879;28;20447;-74
2024/01/27 04:28:53;;;;;;;16.27;7.10;;;15.00;57.40;;;;;;5014123;28;20528;-74
2024/01/27 04:31:21;;;;;;;11.63;6.33;;;15.00;57.40;;;;;;5031060;28;20526;-74
2024/01/27 04:33:49;;;;;;;13.20;7.17;;;15.00;57.20;;;;;;5030330;28;20521;-74
2024/01/27 04:36:26;;;;;;;16.17;7.20;;;15.00;57.20;;;;;;5025311;28;20904;-75
2024/01/27 04:38:54;;;;;;;10.97;6.80;;;14.90;57.00;;;;;;5030671;28;20485;-74
2024/01/27 04:41:22;;;;;;;15.93;6.70;;;14.90;57.30;;;;;;5030678;28;20447;-74
2024/01/27 04:43:52;;;;;;;9.83;5.93;;;14.90;57.30;;;;;;5030070;28;20475;-74
2024/01/27 04:46:20;;;;;;;11.90;6.60;;;14.90;57.00;;;;;;5030375;28;20506;-74
2024/01/27 04:48:48;;;;;;;13.57;6.97;;;14.90;57.20;;;;;;5029813;28;20995;-74
2024/01/27 04:51:16;;;;;;;10.30;6.67;;;14.90;57.00;;;;;;5030071;28;20439;-74
2024/01/27 04:53:44;;;;;;;12.40;6.77;;;14.90;57.10;;;;;;5026827;28;20474;-75
2024/01/27 04:56:12;;;;;;;14.90;7.00;;;14.90;56.90;;;;;;5030066;28;20482;-74
2024/01/27 04:58:41;;;;;;;11.70;6.20;;;14.90;57.80;;;;;;5029556;28;20522;-74
2024/01/27 05:01:10;;;;;;;13.17;6.70;;;14.90;57.30;;;;;;5029575;28;20505;-74
2024/01/27 05:03:38;;;;;;;15.30;7.20;;;14.90;57.10;;;;;;5028735;28;20456;-74
2024/01/27 05:06:08;;;;;;;15.83;7.33;;;14.90;57.10;;;;;;5029691;28;20440;-73
2024/01/27 05:08:37;;;;;;;13.50;6.50;;;14.90;57.20;;;;;;5029196;28;20475;-74
2024/01/27 05:11:05;;;;;;;14.70;6.70;;;14.90;56.80;;;;;;5029692;28;20444;-74
2024/01/27 05:13:32;;;;;;;14.17;6.63;;;14.90;57.30;;;;;;5028978;28;20491;-74
2024/01/27 05:16:00;;;;;;;14.67;6.50;;;14.90;57.10;;;;;;5029622;28;20432;-74
2024/01/27 05:18:29;;;;;;;12.83;6.70;;;14.90;57.10;;;;;;5021599;28;20466;-74
2024/01/27 05:20:57;;;;;;;13.40;6.83;;;14.90;57.00;;;;;;5023419;28;20458;-74
2024/01/27 05:23:25;;;;;;;14.53;5.87;;;14.80;57.20;;;;;;5013212;28;20527;-74
2024/01/27 05:25:54;;;;;;;13.73;7.10;;;14.90;57.10;;;;;;5022042;28;20514;-74
2024/01/27 05:28:22;;;;;;;13.60;6.33;;;14.80;57.30;;;;;;5018820;28;20475;-74
2024/01/27 05:30:50;;;;;;;10.73;6.03;;;14.90;57.10;;;;;;5029942;28;20459;-74
2024/01/27 05:33:18;;;;;;;19.90;6.13;;;14.80;57.20;;;;;;5029418;28;20456;-74
2024/01/27 05:35:48;;;;;;;16.13;7.20;;;14.80;57.20;;;;;;5029672;28;20511;-74
2024/01/27 05:38:16;;;;;;;13.27;6.67;;;14.80;57.20;;;;;;5031085;28;20450;-73
2024/01/27 05:40:45;;;;;;;16.57;5.70;;;14.80;57.00;;;;;;5030184;28;20459;-74
2024/01/27 05:43:13;;;;;;;14.23;6.00;;;14.80;57.30;;;;;;5029793;28;20460;-74
2024/01/27 05:45:40;;;;;;;10.30;5.87;;;14.80;57.00;;;;;;5027558;28;20471;-74
2024/01/27 05:48:08;;;;;;;16.80;6.17;;;14.80;57.10;;;;;;5027923;28;20574;-74
2024/01/27 05:50:36;;;;;;;12.57;5.93;;;14.80;57.60;;;;;;5025021;28;20474;-73
2024/01/27 05:53:06;;;;;;;10.37;5.80;;;14.80;57.30;;;;;;5028570;28;20896;-74
2024/01/27 05:55:34;;;;;;;10.17;5.63;;;14.80;57.00;;;;;;5029119;28;20435;-74
2024/01/27 05:58:02;;;;;;;10.80;5.97;;;14.80;57.10;;;;;;5021628;28;20468;-73
2024/01/27 06:00:30;;;;;;;13.10;5.90;;;14.70;56.90;;;;;;5022959;28;20467;-74
2024/01/27 06:02:58;;;;;;;13.20;5.70;;;14.70;57.10;;;;;;5021187;28;20459;-74
2024/01/27 06:05:26;;;;;;;9.70;5.47;;;14.80;57.10;;;;;;5029375;28;20439;-74
2024/01/27 06:07:54;;;;;;;12.97;5.80;;;14.70;56.90;;;;;;5028710;28;20566;-74
2024/01/27 06:10:24;;;;;;;15.23;5.47;;;14.70;57.00;;;;;;5036736;28;20510;-73
2024/01/27 06:12:52;;;;;;;14.20;5.43;;;14.70;56.80;;;;;;5050227;28;20490;-74
2024/01/27 06:15:20;;;;;;;9.07;5.10;;;14.70;57.10;;;;;;5051033;28;20543;-74
2024/01/27 06:17:48;;;;;;;10.60;5.10;;;14.70;57.10;;;;;;5051292;28;20530;-74
2024/01/27 06:20:18;;;;;;;12.90;5.60;;;14.70;57.00;;;;;;5051000;28;20443;-73
2024/01/27 06:22:46;;;;;;;6.93;4.53;;;14.70;57.00;;;;;;5050784;28;20545;-74
2024/01/27 06:25:14;;;;;;;9.40;4.70;;;14.70;57.00;;;;;;5050864;28;20537;-74
2024/01/27 06:27:43;;;;;;;10.63;4.70;;;14.70;57.10;;;;;;5034424;28;20471;-74
2024/01/27 06:30:12;;;;;;;8.47;4.87;;;14.70;57.10;;;;;;5034680;28;20432;-73
2024/01/27 06:32:40;;;;;;;11.00;4.90;;;14.70;57.00;;;;;;5033954;28;20467;-73
2024/01/27 06:35:09;;;;;;;15.77;5.40;;;14.70;57.00;;;;;;5034912;28;20449;-73
2024/01/27 06:37:37;;;;;;;7.93;4.40;;;14.70;56.80;;;;;;5034340;28;20494;-74
2024/01/27 06:40:06;;;;;;;7.80;4.83;;;14.70;56.90;;;;;;5034753;28;20441;-74
2024/01/27 06:42:33;;;;;;;10.17;4.77;;;14.60;56.80;;;;;;5034772;28;20462;-74
2024/01/27 06:45:03;;;;;;;15.30;5.27;;;14.60;57.00;;;;;;5034920;28;20427;-74
2024/01/27 06:47:31;;;;;;;8.23;4.37;;;14.60;57.00;;;;;;5034447;28;20530;-74
2024/01/27 06:49:59;;;;;;;10.17;4.80;;;14.60;57.00;;;;;;5034651;28;20443;-74
2024/01/27 06:52:27;;;;;;;9.80;4.43;;;14.60;56.90;;;;;;5030240;28;20467;-74
2024/01/27 06:54:55;;;;;;;13.20;4.90;;;14.60;57.00;;;;;;5033984;28;20542;-74
2024/01/27 06:57:24;;;;;;;9.60;4.10;;;14.60;56.90;;;;;;5034191;28;20470;-74
2024/01/27 06:59:53;;;;;;;9.00;4.30;;;14.60;57.00;;;;;;5034655;28;20439;-74
2024/01/27 07:02:26;;;;;;;5.87;4.37;;;14.60;57.00;;;;;;5034513;28;20474;-74
2024/01/27 07:04:54;;;;;;;11.10;4.80;;;14.60;57.00;;;;;;5033627;28;20471;-74
2024/01/27 07:07:23;;;;;;;11.10;4.70;;;14.50;56.90;;;;;;5033545;28;20435;-74
2024/01/27 07:09:51;;;;;;;8.53;4.40;;;14.60;56.80;;;;;;5034336;28;20584;-74
2024/01/27 07:12:19;;;;;;;8.37;3.60;;;14.50;56.70;;;;;;5034253;28;20566;-74
2024/01/27 07:14:47;;;;;;;10.17;4.20;;;14.50;56.70;;;;;;5033649;28;20534;-74
2024/01/27 07:17:15;;;;;;;7.90;4.53;;;14.50;56.80;;;;;;5060573;22;20510;-75
2024/01/27 07:19:45;;;;;;;8.80;4.33;;;14.60;56.80;;;;;;5054692;28;20415;-76
2024/01/27 07:22:13;;;;;;;10.00;4.47;;;14.50;56.70;;;;;;5054498;28;20441;-76
2024/01/27 07:24:41;;;;;;;9.83;3.87;;;14.50;57.00;;;;;;5053809;28;20473;-76
2024/01/27 07:27:12;;;;;;;6.50;3.63;;;14.60;56.90;;;;;;5059621;28;20449;-77
2024/01/27 07:29:40;;;;;;;7.43;4.30;;;14.60;56.90;;;;;;5074081;28;20502;-74
2024/01/27 07:32:13;;;;;;;8.93;3.30;;;14.60;56.60;;;;;;5074413;28;20437;-76
2024/01/27 07:34:41;;;;;;;8.63;3.90;;;14.50;56.80;;;;;;5074050;28;20436;-76
2024/01/27 07:37:11;;;;;;;9.70;3.87;;;14.60;56.80;;;;;;5073901;28;20474;-76
2024/01/27 07:39:39;;;;;;;11.40;3.53;;;14.60;56.80;;;;;;5074003;28;20466;-77
2024/01/27 07:42:07;;;;;;;6.60;3.80;;;14.60;56.80;;;;;;5074212;28;20447;-76
2024/01/27 07:44:35;;;;;;;8.20;3.97;;;14.60;56.80;;;;;;5073488;28;20501;-76
2024/01/27 07:47:03;;;;;;;9.30;3.80;;;14.60;56.70;;;;;;5073549;28;20548;-74
2024/01/27 07:49:31;;;;;;;8.60;3.50;;;14.60;56.70;;;;;;5073286;28;20508;-76
2024/01/27 07:51:59;;;;;;;7.03;3.57;;;14.60;56.70;;;;;;5073872;28;20457;-76
2024/01/27 07:54:29;;;;;;;8.80;3.83;;;14.60;56.90;;;;;;5073780;28;20454;-74
2024/01/27 07:56:57;;;;;;;9.60;3.83;;;14.60;56.70;;;;;;5073551;28;20469;-76
2024/01/27 07:59:26;;;;;;;8.30;3.90;;;14.60;56.70;;;;;;5073974;28;20466;-76
2024/01/27 08:01:54;;;;;;;6.20;3.30;;;14.70;56.80;;;;;;5074952;28;20481;-76
2024/01/27 08:04:22;;;;;;;7.27;3.63;;;14.60;56.80;;;;;;5073234;28;20476;-76
2024/01/27 08:06:50;;;;;;;5.07;3.90;;;14.70;56.80;;;;;;5068365;28;20458;-76
2024/01/27 08:09:19;;;;;;;6.10;3.57;;;14.70;56.90;;;;;;5070688;28;20470;-76
2024/01/27 08:11:52;;;;;;;6.90;3.90;;;14.70;56.80;;;;;;5069378;28;20443;-77
2024/01/27 08:14:22;;;;;;;7.77;3.87;;;14.70;56.80;;;;;;5065172;28;20430;-77
2024/01/27 08:16:50;;;;;;;4.67;2.90;;;14.80;56.90;;;;;;5054345;28;20470;-75
2024/01/27 08:19:20;;;;;;;4.80;3.00;;;14.80;56.80;;;;;;5053448;28;20438;-74
2024/01/27 08:21:49;;;;;;;6.40;3.20;;;14.80;57.00;;;;;;5070583;28;20449;-76
2024/01/27 08:24:17;;;;;;;5.70;3.40;;;14.90;57.00;;;;;;5061419;28;20520;-77
2024/01/27 08:26:46;;;;;;;6.37;3.50;;;14.80;57.00;;;;;;5053622;28;20473;-76
2024/01/27 08:29:16;;;;;;;8.57;3.90;;;14.90;57.00;;;;;;5071377;28;20468;-76
2024/01/27 08:31:44;;;;;;;7.03;4.03;;;14.90;57.00;;;;;;5073145;28;20524;-76
2024/01/27 08:34:14;;;;;;;9.67;4.00;;;15.00;57.00;;;;;;5057711;28;20456;-75
2024/01/27 08:36:42;;;;;;;7.83;4.10;;;15.00;57.10;;;;;;5060663;28;20450;-76
2024/01/27 08:39:12;;;;;;;6.13;3.77;;;15.10;57.30;;;;;;5061397;28;20533;-79
2024/01/27 08:41:40;;;;;;;7.20;4.13;;;15.20;57.30;;;;;;5065853;28;20438;-76
2024/01/27 08:44:08;;;;;;;11.37;4.10;;;15.30;57.50;;;;;;5061391;28;20532;-75
2024/01/27 08:46:37;;;;;;;7.00;3.90;;;15.30;57.50;;;;;;5063388;28;20521;-75
2024/01/27 08:49:05;;;;;;;10.53;4.20;;;15.40;57.70;;;;;;5065696;28;20462;-77
2024/01/27 08:51:34;;;;;;;10.10;4.23;;;15.50;57.90;;;;;;5058161;28;20458;-76
2024/01/27 08:54:03;;;;;;;12.90;4.53;;;15.60;58.00;;;;;;5063252;28;20477;-75
2024/01/27 08:56:31;;;;;;;8.87;3.63;;;15.70;58.30;;;;;;5054899;28;20447;-75
2024/01/27 08:58:59;;;;;;;6.80;3.60;;;15.80;58.60;;;;;;5052519;28;20465;-77
2024/01/27 09:01:27;;;;;;;6.53;4.03;;;15.90;58.90;;;;;;5065917;28;20438;-75
2024/01/27 09:03:57;;;;;;;5.53;3.40;;;15.90;59.20;;;;;;5072068;28;20445;-76
2024/01/27 09:06:25;;;;;;;8.30;3.60;;;16.10;59.70;;;;;;5062394;28;20448;-76
2024/01/27 09:08:58;;;;;;;8.67;3.57;;;16.20;60.10;;;;;;5057471;28;20442;-75
2024/01/27 09:11:27;;;;;;;5.73;3.40;;;16.30;60.40;;;;;;5059741;28;20442;-77
2024/01/27 09:13:55;;;;;;;5.90;3.43;;;16.50;60.90;;;;;;5052594;28;20470;-76
2024/01/27 09:16:23;;;;;;;8.57;3.90;;;16.70;61.20;;;;;;5052425;28;20489;-76
2024/01/27 09:18:52;;;;;;;8.00;4.10;;;16.80;61.80;;;;;;5060450;28;20545;-75
2024/01/27 09:21:27;;;;;;;5.10;3.30;;;17.00;62.10;;;;;;5064733;28;20476;-74
2024/01/27 09:23:56;;;;;;;5.30;3.40;;;17.20;62.60;;;;;;5057765;28;20476;-76
2024/01/27 09:26:24;;;;;;;5.77;3.40;;;17.50;62.70;;;;;;5059663;28;20446;-78
2024/01/27 09:28:54;;;;;;;6.97;3.20;;;17.60;63.00;;;;;;5058581;28;20482;-76
2024/01/27 09:31:22;;;;;;;7.73;3.53;;;17.70;63.10;;;;;;5063217;28;20449;-75
2024/01/27 09:33:52;;;;;;;5.50;3.37;;;17.90;63.40;;;;;;5052002;28;20443;-76
2024/01/27 09:36:21;;;;;;;4.50;3.23;;;18.00;63.40;;;;;;5061362;28;20446;-76
2024/01/27 09:38:50;;;;;;;6.13;3.37;;;18.20;63.80;;;;;;5063637;28;20480;-76
2024/01/27 09:41:18;;;;;;;7.40;3.40;;;18.30;63.90;;;;;;5060281;28;20430;-77
2024/01/27 09:43:47;;;;;;;6.10;3.40;;;18.40;63.90;;;;;;5062382;28;20466;-77
2024/01/27 09:46:15;;;;;;;5.77;3.20;;;18.50;64.10;;;;;;5071601;28;20426;-76
2024/01/27 09:48:43;;;;;;;5.97;3.57;;;18.50;64.20;;;;;;5072112;28;20454;-77
2024/01/27 09:51:12;;;;;;;6.43;3.10;;;18.60;64.30;;;;;;5072529;28;20477;-76
2024/01/27 09:53:41;;;;;;;4.80;3.20;;;18.70;64.40;;;;;;5071862;28;20449;-77
2024/01/27 09:56:09;;;;;;;6.03;3.37;;;18.80;64.50;;;;;;5072283;28;20473;-76
2024/01/27 09:58:38;;;;;;;6.43;3.27;;;18.90;64.70;;;;;;5071874;28;20458;-76
2024/01/27 10:01:06;;;;;;;5.33;3.10;;;19.00;64.90;;;;;;5072332;28;20442;-76
2024/01/27 10:03:35;;;;;;;8.20;3.47;;;19.20;65.10;;;;;;5073625;28;20440;-77
2024/01/27 10:06:04;;;;;;;10.57;3.30;;;19.30;65.10;;;;;;5076394;28;20524;-77
2024/01/27 10:08:32;;;;;;;5.40;3.43;;;19.50;65.30;;;;;;5075321;28;20492;-76
2024/01/27 10:11:07;;;;;;;4.13;2.90;;;19.70;65.30;;;;;;5076118;28;20509;-75
2024/01/27 10:13:35;;;;;;;8.60;3.50;;;19.80;65.30;;;;;;5075532;28;20460;-77
2024/01/27 10:16:04;;;;;;;7.50;3.23;;;19.90;65.30;;;;;;5076091;28;20509;-76
2024/01/27 10:18:31;;;;;;;8.70;3.70;;;20.10;65.30;;;;;;5075063;28;20507;-75
2024/01/27 10:21:01;;;;;;;7.43;3.50;;;20.30;65.30;;;;;;5074766;28;21029;-74
2024/01/27 10:23:29;;;;;;;6.87;3.20;;;20.40;65.50;;;;;;5068831;28;20480;-77
2024/01/27 10:25:56;;;;;;;9.13;3.57;;;20.60;65.60;;;;;;5066406;28;20533;-76
2024/01/27 10:28:26;;;;;;;6.47;2.83;;;20.70;65.40;;;;;;5072829;28;20467;-76
2024/01/27 10:30:54;;;;;;;7.80;3.50;;;20.90;65.30;;;;;;5064396;28;20501;-77
2024/01/27 10:33:23;;;;;;;7.80;3.20;;;21.00;65.10;;;;;;5064174;28;20484;-77
2024/01/27 10:35:59;;;;;;;6.93;3.00;;;21.20;65.20;;;;;;5065224;28;20449;-77
2024/01/27 10:38:35;;;;;;;8.33;3.20;;;21.30;65.10;;;;;;5070540;28;20544;-77
2024/01/27 10:41:03;;;;;;;11.77;3.50;;;21.40;64.80;;;;;;5075325;28;20499;-78
2024/01/27 10:43:33;;;;;;;6.27;3.03;;;21.60;64.70;;;;;;5075108;28;20518;-76
2024/01/27 10:46:04;;;;;;;6.00;3.03;;;21.60;64.50;;;;;;5075383;28;20426;-74
2024/01/27 10:48:32;;;;;;;4.77;2.83;;;21.80;64.50;;;;;;5075152;28;20457;-75
2024/01/27 10:51:00;;;;;;;5.50;2.63;;;21.90;65.10;;;;;;5075456;28;20487;-75
2024/01/27 10:53:30;;;;;;;5.23;2.90;;;22.00;64.20;;;;;;5076075;28;20499;-75
2024/01/27 10:55:59;;;;;;;7.07;2.70;;;22.20;64.20;;;;;;5074743;28;20458;-75
2024/01/27 10:58:28;;;;;;;8.00;2.90;;;22.30;63.80;;;;;;5074609;28;20515;-77
2024/01/27 11:00:57;;;;;;;7.90;3.03;;;22.40;63.60;;;;;;5074967;28;20524;-75
2024/01/27 11:03:25;;;;;;;5.43;3.13;;;22.50;63.40;;;;;;5074696;28;20437;-75
2024/01/27 11:05:53;;;;;;;7.77;3.17;;;22.70;63.20;;;;;;5074814;28;20412;-75
2024/01/27 11:08:27;;;;;;;7.17;3.40;;;22.80;62.90;;;;;;5073776;28;21039;-79
2024/01/27 11:10:56;;;;;;;6.33;3.20;;;23.00;62.60;;;;;;5075130;28;20469;-75
2024/01/27 11:13:24;;;;;;;8.33;3.17;;;23.20;62.40;;;;;;5073900;28;20473;-74
2024/01/27 11:15:52;;;;;;;7.90;3.20;;;23.40;62.30;;;;;;5075339;28;20503;-76
2024/01/27 11:18:22;;;;;;;6.17;3.13;;;23.50;61.90;;;;;;5074630;28;20451;-76
2024/01/27 11:20:53;;;;;;;5.50;3.27;;;23.70;61.60;;;;;;5075406;28;20527;-77
2024/01/27 11:23:22;;;;;;;4.37;3.07;;;23.80;61.10;;;;;;5074376;28;20488;-76
2024/01/27 11:25:49;;;;;;;6.50;3.60;;;24.00;60.70;;;;;;5073400;28;20416;-76
2024/01/27 11:28:20;;;;;;;3.43;2.80;;;24.10;60.30;;;;;;5074632;28;20515;-76
2024/01/27 11:30:48;;;;;;;6.17;3.23;;;24.30;59.90;;;;;;5074586;28;20477;-76
2024/01/27 11:33:16;;;;;;;7.80;3.70;;;24.40;59.70;;;;;;5074396;28;20547;-76
2024/01/27 11:35:45;;;;;;;4.70;3.17;;;24.60;59.40;;;;;;5074850;28;20438;-76
2024/01/27 11:38:14;;;;;;;4.40;3.30;;;24.80;59.10;;;;;;5074960;28;20479;-76
2024/01/27 11:40:49;;;;;;;7.17;3.43;;;24.90;58.70;;;;;;5074392;28;20433;-76
2024/01/27 11:43:17;;;;;;;5.90;3.13;;;25.00;58.30;;;;;;5074209;28;20465;-77
2024/01/27 11:45:55;;;;;;;3.23;2.90;;;25.10;57.90;;;;;;5074563;28;20464;-77
2024/01/27 11:48:23;;;;;;;5.20;3.60;;;25.20;57.70;;;;;;5074353;28;20523;-77
2024/01/27 11:51:05;;;;;;;5.53;3.10;;;25.30;57.30;;;;;;5074120;28;20485;-76
2024/01/27 11:53:34;;;;;;;7.33;3.23;;;25.50;57.20;;;;;;5073491;28;20447;-76
2024/01/27 11:56:02;;;;;;;6.73;3.50;;;25.60;56.90;;;;;;5066229;28;20421;-77
2024/01/27 11:58:30;;;;;;;6.60;3.60;;;25.70;56.70;;;;;;5074244;28;20899;-76
2024/01/27 12:00:58;;;;;;;5.50;3.20;;;25.90;56.30;;;;;;5065601;28;20473;-75
2024/01/27 12:03:27;;;;;;;6.87;3.40;;;26.00;55.80;;;;;;5071858;28;20441;-76
2024/01/27 12:05:55;;;;;;;4.80;3.50;;;26.10;55.50;;;;;;5074152;28;20906;-76
2024/01/27 12:08:28;;;;;;;5.37;3.07;;;26.30;55.40;;;;;;5074266;28;20468;-77
2024/01/27 12:10:57;;;;;;;5.27;3.10;;;26.40;54.80;;;;;;5074841;28;20466;-77
2024/01/27 12:13:25;;;;;;;7.03;3.30;;;26.60;54.40;;;;;;5073208;28;20420;-76
2024/01/27 12:15:53;;;;;;;7.53;3.47;;;26.70;54.20;;;;;;5073864;28;20420;-76
2024/01/27 12:18:21;;;;;;;6.97;3.67;;;26.90;54.00;;;;;;5073637;28;20503;-76
2024/01/27 12:20:56;;;;;;;8.10;3.10;;;27.00;53.40;;;;;;5073825;28;20528;-77
2024/01/27 12:23:24;;;;;;;5.27;3.40;;;27.10;53.30;;;;;;5059429;28;20481;-77
2024/01/27 12:25:57;;;;;;;8.60;4.00;;;27.30;53.00;;;;;;5052976;28;20421;-77
2024/01/27 12:28:25;;;;;;;7.23;2.97;;;27.40;52.70;;;;;;5056059;28;21060;-76
2024/01/27 12:30:53;;;;;;;5.80;3.47;;;27.50;52.50;;;;;;5053607;28;20501;-77
2024/01/27 12:33:24;;;;;;;8.23;3.07;;;27.60;52.00;;;;;;5069589;28;20449;-76
2024/01/27 12:35:54;;;;;;;4.93;3.07;;;27.60;51.80;;;;;;5062200;28;20423;-75
2024/01/27 12:38:23;;;;;;;4.70;2.90;;;27.60;51.70;;;;;;5062487;28;20429;-77
2024/01/27 12:40:51;;;;;;;6.60;3.10;;;27.70;51.50;;;;;;5072992;28;20918;-77
2024/01/27 12:43:20;;;;;;;7.33;3.13;;;27.80;51.30;;;;;;5057106;28;20466;-75
2024/01/27 12:45:51;;;;;;;8.50;3.20;;;27.90;51.10;;;;;;5069672;28;20491;-76
2024/01/27 12:48:19;;;;;;;8.27;3.67;;;28.00;50.80;;;;;;5058716;28;20449;-76
2024/01/27 12:50:47;;;;;;;5.63;3.23;;;28.00;50.70;;;;;;5068156;28;20449;-76
2024/01/27 12:53:15;;;;;;;3.90;3.00;;;28.10;50.60;;;;;;5052659;28;20462;-77